Date,TemperatureHighF,TemperatureAvgF,TemperatureLowF,DewpointHighF,DewpointAvgF,DewpointLowF,HumidityHigh,HumidityAvg,HumidityLow,PressureMaxIn,PressureMinIn,WindSpeedMaxMPH,WindSpeedAvgMPH,GustSpeedMaxMPH,PrecipitationSumIn
2013-8-1,92.3,85.9,82.0,79.2,76.9,75.2,83,75,60,30.02,29.91,10,2,13,0.00
2013-8-2,91.4,86.0,81.2,79.8,77.4,75.6,85,76,64,30.06,29.92,9,2,9,0.00
2013-8-3,92.2,86.9,82.9,80.2,77.5,74.8,85,74,61,30.11,30.02,12,2,14,0.00
2013-8-4,93.4,86.2,81.6,79.7,77.7,75.5,88,76,60,30.10,30.00,7,1,7,0.00
2013-8-5,92.3,86.6,81.8,78.3,76.0,71.7,80,71,54,30.05,29.96,10,2,11,0.00
2013-8-6,89.0,83.5,78.8,80.4,77.3,74.1,93,82,73,29.99,29.90,13,2,14,0.63
2013-8-7,89.5,84.2,80.6,79.4,77.5,74.8,88,80,69,29.94,29.88,15,2,15,0.08
2013-8-8,91.3,86.2,83.4,79.8,77.3,74.7,82,75,64,29.97,29.88,18,4,19,0.00
2013-8-9,89.8,83.8,78.8,78.4,75.6,71.7,88,77,62,30.01,29.90,25,3,25,0.00
2013-8-10,91.6,86.6,82.4,80.3,77.9,75.7,85,76,66,30.08,29.98,16,4,16,0.00
2013-8-11,92.0,86.1,82.3,81.0,78.6,76.6,88,79,66,30.10,30.02,13,4,14,0.06
2013-8-12,92.7,86.0,81.8,79.4,76.6,74.3,84,74,61,30.08,29.97,12,3,13,0.00
2013-8-13,93.1,86.8,82.1,79.9,77.7,75.5,84,75,62,30.02,29.94,12,2,12,0.00
2013-8-14,91.5,85.3,82.3,80.7,77.3,74.7,84,77,66,30.00,29.91,17,3,17,0.02
2013-8-15,91.0,84.6,78.7,79.9,77.9,73.8,89,81,69,30.03,29.94,17,2,17,0.01
2013-8-16,93.4,87.0,82.7,83.2,80.0,77.4,87,80,69,30.02,29.95,12,2,13,0.01
2013-8-17,93.4,87.4,83.4,80.8,78.8,76.3,85,76,63,30.04,29.96,13,3,13,0.00
2013-8-18,93.7,86.1,82.0,81.9,78.4,75.8,87,78,65,30.04,29.94,16,3,16,0.01
2013-8-19,93.1,86.0,78.8,81.3,78.3,73.4,90,78,65,30.03,29.93,20,3,20,0.06
2013-8-20,92.3,85.2,81.9,79.3,77.3,75.1,85,78,64,30.02,29.94,11,2,12,0.00
2013-8-21,92.1,85.9,78.4,81.8,78.5,74.8,91,79,66,30.03,29.93,26,3,26,0.28
2013-8-22,91.3,85.2,77.8,82.1,78.5,72.2,92,81,68,30.02,29.91,16,3,16,0.17
2013-8-23,92.2,86.0,80.9,80.8,78.4,75.1,89,78,64,29.99,29.91,12,2,12,0.02
2013-8-24,92.2,86.5,82.6,80.6,77.8,76.2,84,76,65,30.07,29.95,12,3,12,0.00
2013-8-25,92.7,85.8,82.6,80.2,77.9,76.1,85,78,63,30.10,30.00,10,2,13,0.01
2013-8-26,84.7,81.1,75.3,78.3,75.5,72.9,93,83,75,30.11,29.98,18,2,18,0.32
2013-8-27,81.6,79.9,73.8,76.2,73.3,69.9,92,80,70,30.04,29.94,15,2,15,0.12
2013-8-28,87.1,79.4,72.5,79.4,74.8,70.6,96,86,73,30.01,29.92,9,2,13,0.57
2013-8-29,88.6,83.6,78.9,80.1,76.8,75.0,91,80,70,30.02,29.93,7,1,7,0.00
2013-8-30,88.7,83.5,80.1,79.3,76.5,73.1,86,80,71,30.01,29.91,8,1,9,0.00
2013-8-31,89.6,84.1,79.3,80.1,76.8,74.7,90,79,66,29.97,29.90,9,1,10,0.04